createdAt,value
2017-05-24T00:00:58.421Z,69.00
2017-05-24T00:03:27.365Z,69.70
2017-05-24T00:05:56.360Z,70.10
2017-05-24T00:08:25.286Z,70.00
2017-05-24T00:10:54.232Z,71.10
2017-05-24T00:13:23.203Z,70.00
2017-05-24T00:15:52.145Z,70.30
2017-05-24T00:18:21.066Z,70.40
2017-05-24T00:20:50.017Z,69.90
2017-05-24T00:23:18.942Z,69.40
2017-05-24T00:25:47.861Z,69.40
2017-05-24T00:28:16.811Z,69.30
2017-05-24T00:30:45.757Z,69.20
2017-05-24T00:33:14.683Z,69.20
2017-05-24T00:35:43.656Z,70.00
2017-05-24T00:38:12.587Z,69.80
2017-05-24T00:40:41.515Z,70.00
2017-05-24T00:43:10.473Z,70.50
2017-05-24T00:45:39.412Z,70.90
2017-05-24T00:48:08.357Z,70.30
2017-05-24T00:50:37.305Z,70.10
2017-05-24T00:53:06.246Z,70.30
2017-05-24T00:55:35.167Z,70.60
2017-05-24T00:58:04.140Z,70.50
2017-05-24T01:00:33.071Z,71.00
2017-05-24T01:03:02.012Z,71.70
2017-05-24T01:05:30.987Z,71.80
2017-05-24T01:07:59.921Z,71.80
2017-05-24T01:10:28.845Z,71.80
2017-05-24T01:12:57.802Z,71.80
2017-05-24T01:15:26.731Z,71.70
2017-05-24T01:17:55.680Z,71.50
2017-05-24T01:20:24.653Z,71.20
2017-05-24T01:22:53.598Z,71.50
2017-05-24T01:25:22.537Z,71.60
2017-05-24T01:27:51.505Z,71.50
2017-05-24T01:30:20.448Z,71.70
2017-05-24T01:32:49.393Z,71.40
2017-05-24T01:35:18.369Z,71.30
2017-05-24T01:37:47.316Z,71.50
2017-05-24T01:40:16.265Z,71.40
2017-05-24T01:42:45.243Z,71.50
2017-05-24T01:45:14.176Z,72.30
2017-05-24T01:47:43.130Z,71.80
2017-05-24T01:50:12.100Z,72.70
2017-05-24T01:52:41.026Z,71.90
2017-05-24T01:55:09.974Z,71.70
2017-05-24T01:57:38.922Z,71.90
2017-05-24T02:00:07.848Z,72.00
2017-05-24T02:02:36.788Z,71.90
2017-05-24T02:05:05.749Z,71.70
2017-05-24T02:07:34.675Z,71.50
2017-05-24T02:10:03.602Z,72.20
2017-05-24T02:12:32.577Z,71.30
2017-05-24T02:15:01.498Z,71.60
2017-05-24T02:17:30.445Z,71.90
2017-05-24T02:19:59.416Z,71.50
2017-05-24T02:22:28.337Z,71.20
2017-05-24T02:24:57.291Z,71.50
2017-05-24T02:27:26.269Z,72.20
2017-05-24T02:29:55.195Z,72.30
2017-05-24T02:32:24.124Z,72.10
2017-05-24T02:34:53.089Z,72.20
2017-05-24T02:37:22.035Z,72.20
2017-05-24T02:39:50.974Z,71.70
2017-05-24T02:42:19.923Z,71.50
2017-05-24T02:44:48.841Z,71.50
2017-05-24T02:47:17.764Z,71.60
2017-05-24T02:49:46.718Z,71.30
2017-05-24T02:52:15.657Z,71.50
2017-05-24T02:54:44.609Z,71.30
2017-05-24T02:57:13.582Z,71.50
2017-05-24T02:59:42.508Z,71.90
2017-05-24T03:02:11.425Z,72.10
2017-05-24T03:04:40.382Z,72.00
2017-05-24T03:07:09.305Z,71.70
2017-05-24T03:09:38.225Z,71.50
2017-05-24T03:12:07.178Z,71.90
2017-05-24T03:14:36.121Z,71.60
2017-05-24T03:17:05.041Z,71.90
2017-05-24T03:19:34.017Z,71.60
2017-05-24T03:22:02.960Z,71.30
2017-05-24T03:24:31.878Z,71.30
2017-05-24T03:27:00.956Z,71.30
2017-05-24T03:29:29.903Z,71.50
2017-05-24T03:31:58.850Z,71.80
2017-05-24T03:34:27.811Z,71.90
2017-05-24T03:36:56.752Z,71.50
2017-05-24T03:39:25.693Z,71.50
2017-05-24T03:41:54.652Z,71.60
2017-05-24T03:44:23.592Z,71.10
2017-05-24T03:46:53.353Z,71.00
2017-05-24T03:49:22.311Z,71.20
2017-05-24T03:51:51.230Z,71.00
2017-05-24T03:54:20.173Z,71.40
2017-05-24T03:56:49.231Z,71.30
2017-05-24T03:59:18.156Z,71.00
2017-05-24T04:01:47.082Z,70.80
2017-05-24T04:04:16.057Z,70.80
2017-05-24T04:06:45.004Z,70.20
2017-05-24T04:09:13.923Z,70.30
2017-05-24T04:11:42.904Z,70.10
2017-05-24T04:14:11.850Z,70.60
2017-05-24T04:16:40.779Z,69.40
2017-05-24T04:19:09.743Z,69.40
2017-05-24T04:21:38.685Z,69.50
2017-05-24T04:24:07.627Z,69.50
2017-05-24T04:26:36.574Z,68.80
2017-05-24T04:29:05.494Z,68.60
2017-05-24T04:31:34.436Z,68.70
2017-05-24T04:34:03.420Z,68.80
2017-05-24T04:36:32.342Z,68.30
2017-05-24T04:39:01.274Z,68.00
2017-05-24T04:41:30.229Z,67.90
2017-05-24T04:43:59.148Z,66.80
2017-05-24T04:46:28.089Z,66.40
2017-05-24T04:48:57.113Z,66.30
2017-05-24T04:51:26.035Z,66.30
2017-05-24T04:53:54.963Z,65.20
2017-05-24T04:56:23.931Z,65.00
2017-05-24T04:58:52.873Z,64.10
2017-05-24T05:01:21.816Z,63.90
2017-05-24T05:03:50.787Z,64.40
2017-05-24T05:06:19.728Z,64.30
2017-05-24T05:08:48.655Z,63.80
2017-05-24T05:11:17.992Z,64.20
2017-05-24T05:13:46.913Z,63.70
2017-05-24T05:16:15.855Z,63.40
2017-05-24T05:18:44.818Z,62.80
2017-05-24T05:21:13.753Z,62.10
2017-05-24T05:23:42.704Z,61.80
2017-05-24T05:26:11.668Z,61.20
2017-05-24T05:28:40.621Z,60.00
2017-05-24T05:31:09.542Z,59.70
2017-05-24T05:33:38.512Z,59.80
2017-05-24T05:36:07.453Z,59.30
2017-05-24T05:38:36.379Z,59.60
2017-05-24T05:41:05.365Z,59.60
2017-05-24T05:43:34.289Z,58.30
2017-05-24T05:46:03.206Z,57.50
2017-05-24T05:48:32.156Z,57.90
2017-05-24T05:51:01.078Z,58.00
2017-05-24T05:53:30.001Z,58.10
2017-05-24T05:55:58.974Z,57.60
2017-05-24T05:58:27.917Z,57.10
2017-05-24T06:00:56.900Z,56.60
2017-05-24T06:03:25.869Z,56.90
2017-05-24T06:05:54.791Z,57.10
2017-05-24T06:08:23.710Z,57.60
2017-05-24T06:10:52.682Z,57.00
2017-05-24T06:13:21.609Z,56.80
2017-05-24T06:15:50.561Z,56.70
2017-05-24T06:18:19.553Z,56.60
2017-05-24T06:20:48.493Z,56.50
2017-05-24T06:23:17.423Z,55.70
2017-05-24T06:25:46.412Z,56.30
2017-05-24T06:28:15.773Z,55.60
2017-05-24T06:30:44.697Z,55.50
2017-05-24T06:33:13.668Z,55.60
2017-05-24T06:35:42.616Z,54.40
2017-05-24T06:38:11.549Z,54.90
2017-05-24T06:40:40.521Z,54.20
2017-05-24T06:43:09.461Z,53.60
2017-05-24T06:45:38.404Z,52.50
2017-05-24T06:48:07.381Z,52.30
2017-05-24T06:50:36.321Z,52.60
2017-05-24T06:53:05.271Z,52.70
2017-05-24T06:55:34.237Z,53.00
2017-05-24T06:58:03.173Z,53.20
2017-05-24T07:00:32.099Z,52.90
2017-05-24T07:03:01.066Z,52.20
2017-05-24T07:05:30.006Z,52.20
2017-05-24T07:07:58.930Z,51.90
2017-05-24T07:10:27.893Z,50.80
2017-05-24T07:12:56.814Z,50.70
2017-05-24T07:15:25.738Z,50.80
2017-05-24T07:17:54.706Z,51.30
2017-05-24T07:20:23.631Z,51.20
2017-05-24T07:22:52.577Z,51.70
2017-05-24T07:25:21.549Z,50.70
2017-05-24T07:27:50.497Z,50.30
2017-05-24T07:30:19.439Z,49.70
2017-05-24T07:32:48.394Z,49.60
2017-05-24T07:35:17.334Z,48.90
2017-05-24T07:37:46.358Z,49.00
2017-05-24T07:40:15.321Z,49.30
2017-05-24T07:42:44.265Z,49.40
2017-05-24T07:45:13.194Z,49.60
2017-05-24T07:47:42.141Z,49.10
2017-05-24T07:50:11.063Z,48.50
2017-05-24T07:52:40.002Z,47.70
2017-05-24T07:55:08.950Z,46.30
2017-05-24T07:57:37.873Z,45.80
2017-05-24T08:00:06.802Z,45.20
2017-05-24T08:02:35.758Z,44.90
2017-05-24T08:05:04.711Z,44.30
2017-05-24T08:07:33.630Z,45.10
2017-05-24T08:10:02.602Z,44.20
2017-05-24T08:12:31.541Z,44.10
2017-05-24T08:15:00.461Z,43.10
2017-05-24T08:17:29.430Z,40.60
2017-05-24T08:19:58.354Z,39.40
2017-05-24T08:22:27.291Z,37.50
2017-05-24T08:24:56.261Z,39.40
2017-05-24T08:27:25.209Z,40.90
2017-05-24T08:29:54.138Z,40.70
2017-05-24T08:32:23.098Z,40.30
2017-05-24T08:34:52.023Z,39.70
2017-05-24T08:37:20.952Z,39.10
2017-05-24T08:39:49.913Z,37.10
2017-05-24T08:42:18.846Z,33.50
2017-05-24T08:44:47.787Z,32.50
2017-05-24T08:47:16.757Z,34.00
2017-05-24T08:49:45.688Z,33.90
2017-05-24T08:52:14.615Z,35.50
2017-05-24T08:54:43.577Z,37.10
2017-05-24T08:57:12.498Z,38.70
2017-05-24T08:59:41.442Z,37.50
2017-05-24T09:02:10.421Z,35.20
2017-05-24T09:04:39.346Z,33.80
2017-05-24T09:07:08.369Z,33.90
2017-05-24T09:09:37.327Z,35.70
2017-05-24T09:12:06.268Z,38.10
2017-05-24T09:14:35.204Z,40.10
2017-05-24T09:17:04.181Z,40.30
2017-05-24T09:19:33.124Z,38.20
2017-05-24T09:22:02.076Z,34.60
2017-05-24T09:24:31.034Z,34.20
2017-05-24T09:26:59.973Z,34.50
2017-05-24T09:29:28.921Z,37.80
2017-05-24T09:31:57.900Z,40.50
2017-05-24T09:34:26.827Z,39.70
2017-05-24T09:36:55.773Z,37.70
2017-05-24T09:39:24.746Z,35.80
2017-05-24T09:41:53.693Z,33.60
2017-05-24T09:44:22.626Z,34.00
2017-05-24T09:46:51.600Z,35.80
2017-05-24T09:49:20.543Z,36.80
2017-05-24T09:51:49.489Z,38.20
2017-05-24T09:54:18.442Z,39.50
2017-05-24T09:56:47.367Z,40.80
2017-05-24T09:59:16.291Z,41.00
2017-05-24T10:01:45.265Z,41.30
2017-05-24T10:04:14.186Z,41.50
2017-05-24T10:06:43.124Z,39.90
2017-05-24T10:09:12.093Z,39.20
2017-05-24T10:11:41.019Z,38.10
2017-05-24T10:14:09.971Z,37.50
2017-05-24T10:16:38.927Z,37.40
2017-05-24T10:19:07.872Z,35.10
2017-05-24T10:21:36.815Z,36.40
2017-05-24T10:24:05.788Z,38.40
2017-05-24T10:26:34.728Z,39.80
2017-05-24T10:29:03.672Z,38.00
2017-05-24T10:31:32.623Z,34.50
2017-05-24T10:34:01.560Z,32.20
2017-05-24T10:36:30.513Z,31.10
2017-05-24T10:38:59.476Z,32.50
2017-05-24T10:41:34.017Z,34.10
2017-05-24T10:44:02.982Z,35.40
2017-05-24T10:46:31.920Z,33.20
2017-05-24T10:49:00.871Z,33.50
2017-05-24T10:51:29.831Z,34.80
2017-05-24T10:53:58.758Z,35.80
2017-05-24T10:56:27.700Z,37.70
2017-05-24T10:58:56.647Z,37.60
2017-05-24T11:01:25.592Z,39.10
2017-05-24T11:03:54.514Z,36.30
2017-05-24T11:06:23.459Z,35.20
2017-05-24T11:08:52.397Z,36.30
2017-05-24T11:11:21.356Z,37.10
2017-05-24T11:13:50.302Z,37.20
2017-05-24T11:16:19.231Z,37.80
2017-05-24T11:18:48.206Z,38.80
2017-05-24T11:21:17.162Z,38.90
2017-05-24T11:23:46.105Z,39.50
2017-05-24T11:26:15.031Z,39.30
2017-05-24T11:28:44.000Z,39.10
2017-05-24T11:31:12.945Z,38.70
2017-05-24T11:33:41.863Z,39.20
2017-05-24T11:36:10.847Z,39.90
2017-05-24T11:38:39.785Z,40.50
2017-05-24T11:41:08.727Z,40.80
2017-05-24T11:43:37.675Z,41.20
2017-05-24T11:46:06.599Z,41.80
2017-05-24T11:48:35.963Z,42.60
2017-05-24T11:51:04.914Z,42.50
2017-05-24T11:53:33.859Z,43.70
2017-05-24T11:56:02.796Z,43.80
2017-05-24T11:58:31.770Z,44.30
2017-05-24T12:01:00.715Z,43.60
2017-05-24T12:03:29.643Z,43.00
2017-05-24T12:05:58.630Z,41.30
2017-05-24T12:08:27.553Z,41.00
2017-05-24T12:10:56.483Z,41.60
2017-05-24T12:13:25.456Z,42.00
2017-05-24T12:15:54.402Z,41.80
2017-05-24T12:18:23.346Z,42.40
2017-05-24T12:20:52.298Z,42.00
2017-05-24T12:23:21.214Z,40.40
2017-05-24T12:25:50.132Z,40.60
2017-05-24T12:28:19.086Z,41.00
2017-05-24T12:30:48.033Z,41.20
2017-05-24T12:33:16.981Z,40.90
2017-05-24T12:35:45.932Z,40.30
2017-05-24T12:38:14.869Z,40.40
2017-05-24T12:40:43.812Z,41.10
2017-05-24T12:43:12.788Z,41.70
2017-05-24T12:45:41.733Z,40.70
2017-05-24T12:48:10.661Z,40.80
2017-05-24T12:50:39.746Z,41.40
2017-05-24T12:53:08.690Z,41.10
2017-05-24T12:55:37.610Z,41.70
2017-05-24T12:58:06.559Z,41.30
2017-05-24T13:00:35.491Z,41.30
2017-05-24T13:03:04.412Z,42.60
2017-05-24T13:05:33.370Z,42.70
2017-05-24T13:08:02.315Z,43.10
2017-05-24T13:10:31.256Z,44.00
2017-05-24T13:13:00.234Z,44.60
2017-05-24T13:15:29.166Z,45.00
2017-05-24T13:17:58.109Z,45.10
2017-05-24T13:20:27.084Z,45.50
2017-05-24T13:22:56.010Z,45.70
2017-05-24T13:25:24.930Z,45.50
2017-05-24T13:27:53.898Z,45.00
2017-05-24T13:30:22.843Z,44.70
2017-05-24T13:32:51.772Z,45.90
2017-05-24T13:35:20.726Z,46.10
2017-05-24T13:37:49.664Z,46.30
2017-05-24T13:40:18.611Z,45.80
2017-05-24T13:42:47.565Z,44.50
2017-05-24T13:45:16.512Z,44.80
2017-05-24T13:47:45.461Z,45.20
2017-05-24T13:50:14.418Z,46.00
2017-05-24T13:52:43.344Z,45.40
2017-05-24T13:55:12.271Z,45.90
2017-05-24T13:57:41.264Z,46.30
2017-05-24T14:00:11.554Z,47.10
2017-05-24T14:02:40.510Z,45.90
2017-05-24T14:05:09.628Z,46.60
2017-05-24T14:07:38.588Z,46.40
2017-05-24T14:10:07.529Z,44.50
2017-05-24T14:12:36.508Z,44.00
2017-05-24T14:15:05.438Z,43.50
2017-05-24T14:17:34.358Z,44.00
2017-05-24T14:20:03.317Z,43.70
2017-05-24T14:22:32.289Z,44.30
2017-05-24T14:25:01.234Z,44.50
2017-05-24T14:27:30.198Z,44.80
2017-05-24T14:29:59.142Z,45.90
2017-05-24T14:32:28.088Z,45.90
2017-05-24T14:34:57.046Z,46.30
2017-05-24T14:37:25.978Z,45.50
2017-05-24T14:39:54.931Z,45.70
2017-05-24T14:42:23.887Z,44.50
2017-05-24T14:44:52.811Z,44.30
2017-05-24T14:47:21.729Z,44.80
2017-05-24T14:49:50.702Z,44.80
2017-05-24T14:52:19.646Z,45.20
2017-05-24T14:54:48.597Z,45.30
2017-05-24T14:57:17.571Z,44.80
2017-05-24T14:59:46.497Z,45.10
2017-05-24T15:02:15.426Z,46.10
2017-05-24T15:04:44.383Z,45.80
2017-05-24T15:07:13.315Z,46.00
2017-05-24T15:09:42.241Z,44.50
2017-05-24T15:12:11.213Z,44.80
2017-05-24T15:14:40.157Z,45.10
2017-05-24T15:17:09.078Z,45.20
2017-05-24T15:19:38.044Z,45.40
2017-05-24T15:22:06.963Z,45.90
2017-05-24T15:24:35.919Z,46.70
2017-05-24T15:27:04.875Z,46.70
2017-05-24T15:29:33.820Z,46.20
2017-05-24T15:32:02.743Z,47.30
2017-05-24T15:34:31.708Z,47.30
2017-05-24T15:37:00.649Z,47.10
2017-05-24T15:39:29.567Z,47.30
2017-05-24T15:41:58.585Z,48.00
2017-05-24T15:44:27.527Z,47.10
2017-05-24T15:46:56.446Z,47.30
2017-05-24T15:49:25.417Z,47.40
2017-05-24T15:51:54.335Z,46.30
2017-05-24T15:54:23.276Z,46.80
2017-05-24T15:56:52.239Z,46.30
2017-05-24T15:59:21.176Z,46.80
2017-05-24T16:01:50.126Z,46.90
2017-05-24T16:04:19.102Z,46.20
2017-05-24T16:06:48.029Z,46.30
2017-05-24T16:09:16.969Z,45.50
2017-05-24T16:11:45.924Z,46.80
2017-05-24T16:14:14.863Z,45.80
2017-05-24T16:16:43.785Z,46.80
2017-05-24T16:19:12.739Z,46.00
2017-05-24T16:21:41.682Z,46.80
2017-05-24T16:24:10.603Z,46.10
2017-05-24T16:26:39.568Z,45.90
2017-05-24T16:29:08.512Z,46.30
2017-05-24T16:31:37.445Z,45.90
2017-05-24T16:34:06.399Z,45.50
2017-05-24T16:36:35.349Z,45.70
2017-05-24T16:39:04.275Z,46.30
2017-05-24T16:41:33.255Z,46.00
2017-05-24T16:44:02.198Z,46.70
2017-05-24T16:46:31.143Z,47.40
2017-05-24T16:49:00.095Z,46.80
2017-05-24T16:51:29.099Z,47.30
2017-05-24T16:53:58.013Z,47.90
2017-05-24T16:56:26.989Z,48.70
2017-05-24T16:58:55.949Z,49.20
2017-05-24T17:01:24.890Z,49.90
2017-05-24T17:03:53.860Z,50.30
2017-05-24T17:06:22.805Z,50.50
2017-05-24T17:08:51.750Z,50.70
2017-05-24T17:11:20.729Z,51.60
2017-05-24T17:13:49.654Z,51.10
2017-05-24T17:16:18.574Z,51.40
2017-05-24T17:18:47.568Z,51.50
2017-05-24T17:21:16.517Z,51.70
2017-05-24T17:23:45.441Z,52.40
2017-05-24T17:26:14.394Z,52.30
2017-05-24T17:28:43.333Z,52.00
2017-05-24T17:31:12.253Z,51.90
2017-05-24T17:33:41.202Z,52.80
2017-05-24T17:36:10.144Z,52.60
2017-05-24T17:38:39.067Z,52.20
2017-05-24T17:41:08.021Z,52.10
2017-05-24T17:43:36.955Z,51.90
2017-05-24T17:46:05.897Z,50.90
2017-05-24T17:48:34.874Z,50.70
2017-05-24T17:51:03.793Z,50.20
2017-05-24T17:53:32.741Z,50.60
2017-05-24T17:56:01.708Z,51.10
2017-05-24T17:58:30.622Z,51.80
2017-05-24T18:00:59.546Z,52.00
2017-05-24T18:03:28.517Z,52.10
2017-05-24T18:05:57.444Z,52.60
2017-05-24T18:08:26.364Z,52.70
2017-05-24T18:10:55.325Z,53.20
2017-05-24T18:13:24.422Z,53.50
2017-05-24T18:15:53.341Z,53.60
2017-05-24T18:18:22.333Z,54.30
2017-05-24T18:20:51.316Z,54.10
2017-05-24T18:23:20.323Z,54.60
2017-05-24T18:25:49.647Z,54.60
2017-05-24T18:28:18.567Z,55.10
2017-05-24T18:30:47.517Z,55.50
2017-05-24T18:33:16.475Z,55.80
2017-05-24T18:35:45.416Z,56.40
2017-05-24T18:38:14.353Z,56.10
2017-05-24T18:40:43.309Z,56.70
2017-05-24T18:43:12.258Z,56.50
2017-05-24T18:45:41.181Z,56.70
2017-05-24T18:48:10.148Z,57.00
2017-05-24T18:50:39.070Z,57.10
2017-05-24T18:53:08.011Z,57.50
2017-05-24T18:55:36.965Z,57.90
2017-05-24T18:58:05.898Z,58.00
2017-05-24T19:00:34.826Z,57.90
2017-05-24T19:03:03.806Z,58.70
2017-05-24T19:05:32.763Z,58.10
2017-05-24T19:08:01.690Z,58.40
2017-05-24T19:10:30.641Z,58.80
2017-05-24T19:12:59.571Z,59.40
2017-05-24T19:15:28.514Z,59.50
2017-05-24T19:17:57.474Z,59.90
2017-05-24T19:20:26.409Z,60.60
2017-05-24T19:22:55.331Z,61.20
2017-05-24T19:25:24.310Z,61.90
2017-05-24T19:27:53.239Z,62.60
2017-05-24T19:30:22.180Z,62.90
2017-05-24T19:32:51.149Z,63.10
2017-05-24T19:35:20.100Z,63.20
2017-05-24T19:37:49.045Z,63.20
2017-05-24T19:40:18.004Z,63.40
2017-05-24T19:42:46.922Z,64.10
2017-05-24T19:45:15.842Z,64.20
2017-05-24T19:47:44.818Z,64.30
2017-05-24T19:50:13.733Z,64.40
2017-05-24T19:52:42.663Z,64.80
2017-05-24T19:55:11.633Z,65.40
2017-05-24T19:57:40.562Z,65.50
2017-05-24T20:00:09.500Z,65.80
2017-05-24T20:02:38.466Z,66.20
2017-05-24T20:05:07.414Z,66.50
2017-05-24T20:07:36.366Z,67.00
2017-05-24T20:10:05.326Z,67.10
2017-05-24T20:12:34.253Z,67.50
2017-05-24T20:15:03.193Z,67.70
2017-05-24T20:17:32.154Z,68.00
2017-05-24T20:20:01.080Z,68.30
2017-05-24T20:22:30.034Z,68.60
2017-05-24T20:24:58.991Z,68.90
2017-05-24T20:27:27.939Z,69.00
2017-05-24T20:29:56.876Z,69.30
2017-05-24T20:32:25.874Z,69.50
2017-05-24T20:34:54.798Z,69.90
2017-05-24T20:37:23.735Z,70.30
2017-05-24T20:39:52.699Z,70.40
2017-05-24T20:42:21.662Z,70.70
2017-05-24T20:44:50.625Z,70.90
2017-05-24T20:47:19.605Z,71.40
2017-05-24T20:49:48.533Z,71.80
2017-05-24T20:52:17.471Z,72.00
2017-05-24T20:54:46.433Z,72.20
2017-05-24T20:57:15.359Z,72.10
2017-05-24T20:59:44.305Z,72.30
2017-05-24T21:02:13.275Z,72.70
2017-05-24T21:04:42.285Z,72.50
2017-05-24T21:07:11.227Z,72.40
2017-05-24T21:09:40.199Z,72.30
2017-05-24T21:12:09.132Z,72.60
2017-05-24T21:14:38.064Z,73.00
2017-05-24T21:17:07.027Z,73.10
2017-05-24T21:19:35.965Z,73.30
2017-05-24T21:22:04.910Z,73.40
2017-05-24T21:24:33.877Z,73.50
2017-05-24T21:27:02.821Z,73.60
2017-05-24T21:29:31.742Z,73.50
2017-05-24T21:32:00.695Z,73.60
2017-05-24T21:34:29.639Z,73.60
2017-05-24T21:36:58.562Z,73.80
2017-05-24T21:39:27.542Z,73.70
2017-05-24T21:41:56.501Z,73.90
2017-05-24T21:44:25.427Z,73.90
2017-05-24T21:46:54.386Z,73.70
2017-05-24T21:49:23.313Z,74.50
2017-05-24T21:51:52.329Z,74.80
2017-05-24T21:54:21.393Z,75.10
2017-05-24T21:56:50.318Z,75.30
2017-05-24T21:59:19.262Z,75.50
2017-05-24T22:01:48.255Z,75.70
2017-05-24T22:04:17.185Z,75.60
2017-05-24T22:06:46.110Z,75.90
2017-05-24T22:09:16.107Z,76.30
2017-05-24T22:11:45.051Z,76.50
2017-05-24T22:14:13.998Z,77.20
2017-05-24T22:16:42.977Z,77.50
2017-05-24T22:19:11.921Z,77.60
2017-05-24T22:21:40.842Z,77.40
2017-05-24T22:24:09.794Z,77.60
2017-05-24T22:26:38.734Z,77.70
2017-05-24T22:29:08.512Z,77.80
2017-05-24T22:31:37.475Z,78.20
2017-05-24T22:34:06.408Z,78.40
2017-05-24T22:36:35.441Z,78.40
2017-05-24T22:39:04.449Z,78.70
2017-05-24T22:41:33.654Z,78.60
2017-05-24T22:44:02.595Z,78.70
2017-05-24T22:46:31.536Z,78.80
2017-05-24T22:49:00.580Z,78.50
2017-05-24T22:51:29.533Z,78.90
2017-05-24T22:53:58.485Z,78.70
2017-05-24T22:56:27.447Z,79.20
2017-05-24T22:58:56.380Z,79.10
2017-05-24T23:01:25.334Z,78.90
2017-05-24T23:03:54.262Z,79.30
2017-05-24T23:06:23.213Z,79.50
2017-05-24T23:08:52.162Z,79.60
2017-05-24T23:11:21.111Z,79.60
2017-05-24T23:13:50.074Z,78.80
2017-05-24T23:16:19.027Z,78.90
2017-05-24T23:18:47.958Z,78.80
2017-05-24T23:21:16.920Z,78.50
2017-05-24T23:23:45.850Z,79.00
2017-05-24T23:26:14.830Z,78.50
2017-05-24T23:28:43.764Z,79.10
2017-05-24T23:31:12.698Z,79.40
2017-05-24T23:33:41.673Z,79.90
2017-05-24T23:36:10.612Z,79.90
2017-05-24T23:38:39.590Z,80.00
2017-05-24T23:41:08.524Z,80.30
2017-05-24T23:43:37.463Z,80.40
2017-05-24T23:46:06.428Z,80.20
2017-05-24T23:48:35.359Z,80.00
2017-05-24T23:51:04.310Z,80.10
2017-05-24T23:53:33.239Z,80.00
2017-05-24T23:56:02.188Z,80.10
2017-05-24T23:58:31.136Z,80.10
